sensor_id;sensor_type;location;lat;lon;timestamp;P1;durP1;ratioP1;P2;durP2;ratioP2
62832;SDS011;48891;49.220;6.920;2023-02-19T00:01:32;56.60;;;37.45;;
62832;SDS011;48891;49.220;6.920;2023-02-19T00:03:58;59.22;;;39.15;;
62832;SDS011;48891;49.220;6.920;2023-02-19T00:06:24;57.25;;;36.97;;
62832;SDS011;48891;49.220;6.920;2023-02-19T00:08:50;58.83;;;37.72;;
62832;SDS011;48891;49.220;6.920;2023-02-19T00:11:19;59.30;;;37.88;;
62832;SDS011;48891;49.220;6.920;2023-02-19T00:13:46;58.38;;;37.05;;
62832;SDS011;48891;49.220;6.920;2023-02-19T00:16:12;54.50;;;35.67;;
62832;SDS011;48891;49.220;6.920;2023-02-19T00:18:38;54.60;;;35.72;;
62832;SDS011;48891;49.220;6.920;2023-02-19T00:21:03;58.70;;;37.08;;
62832;SDS011;48891;49.220;6.920;2023-02-19T00:23:29;52.85;;;35.85;;
62832;SDS011;48891;49.220;6.920;2023-02-19T00:25:54;54.53;;;35.90;;
62832;SDS011;48891;49.220;6.920;2023-02-19T00:28:19;51.42;;;35.47;;
62832;SDS011;48891;49.220;6.920;2023-02-19T00:30:45;53.15;;;35.88;;
62832;SDS011;48891;49.220;6.920;2023-02-19T00:33:10;53.53;;;34.80;;
62832;SDS011;48891;49.220;6.920;2023-02-19T00:35:35;52.92;;;34.83;;
62832;SDS011;48891;49.220;6.920;2023-02-19T00:38:00;51.97;;;35.60;;
62832;SDS011;48891;49.220;6.920;2023-02-19T00:40:26;54.65;;;36.25;;
62832;SDS011;48891;49.220;6.920;2023-02-19T00:42:51;56.38;;;36.17;;
62832;SDS011;48891;49.220;6.920;2023-02-19T00:45:16;52.05;;;34.55;;
62832;SDS011;48891;49.220;6.920;2023-02-19T00:47:41;50.93;;;33.90;;
62832;SDS011;48891;49.220;6.920;2023-02-19T00:50:06;54.13;;;35.47;;
62832;SDS011;48891;49.220;6.920;2023-02-19T00:52:32;51.80;;;34.63;;
62832;SDS011;48891;49.220;6.920;2023-02-19T00:54:57;53.97;;;35.13;;
62832;SDS011;48891;49.220;6.920;2023-02-19T00:57:22;49.28;;;33.28;;
62832;SDS011;48891;49.220;6.920;2023-02-19T00:59:47;48.33;;;32.67;;
62832;SDS011;48891;49.220;6.920;2023-02-19T01:02:12;51.92;;;35.28;;
62832;SDS011;48891;49.220;6.920;2023-02-19T01:04:37;52.80;;;34.78;;
62832;SDS011;48891;49.220;6.920;2023-02-19T01:07:02;52.15;;;34.35;;
62832;SDS011;48891;49.220;6.920;2023-02-19T01:09:27;49.00;;;32.60;;
62832;SDS011;48891;49.220;6.920;2023-02-19T01:11:53;49.65;;;33.75;;
62832;SDS011;48891;49.220;6.920;2023-02-19T01:14:18;49.08;;;32.72;;
62832;SDS011;48891;49.220;6.920;2023-02-19T01:16:43;49.40;;;32.53;;
62832;SDS011;48891;49.220;6.920;2023-02-19T01:19:08;48.33;;;32.70;;
62832;SDS011;48891;49.220;6.920;2023-02-19T01:21:33;49.90;;;33.30;;
62832;SDS011;48891;49.220;6.920;2023-02-19T01:23:58;51.33;;;33.67;;
62832;SDS011;48891;49.220;6.920;2023-02-19T01:26:24;48.03;;;33.77;;
62832;SDS011;48891;49.220;6.920;2023-02-19T01:28:50;47.50;;;31.92;;
62832;SDS011;48891;49.220;6.920;2023-02-19T01:31:16;47.65;;;32.03;;
62832;SDS011;48891;49.220;6.920;2023-02-19T01:33:46;49.13;;;32.35;;
62832;SDS011;48891;49.220;6.920;2023-02-19T01:36:11;46.55;;;30.85;;
62832;SDS011;48891;49.220;6.920;2023-02-19T01:38:36;46.03;;;31.75;;
62832;SDS011;48891;49.220;6.920;2023-02-19T01:41:04;45.88;;;29.40;;
62832;SDS011;48891;49.220;6.920;2023-02-19T01:43:32;44.97;;;29.50;;
62832;SDS011;48891;49.220;6.920;2023-02-19T01:45:57;42.17;;;28.40;;
62832;SDS011;48891;49.220;6.920;2023-02-19T01:48:30;44.05;;;30.58;;
62832;SDS011;48891;49.220;6.920;2023-02-19T01:51:01;44.08;;;30.48;;
62832;SDS011;48891;49.220;6.920;2023-02-19T01:53:28;43.40;;;30.02;;
62832;SDS011;48891;49.220;6.920;2023-02-19T01:55:55;46.88;;;30.42;;
62832;SDS011;48891;49.220;6.920;2023-02-19T01:58:23;46.10;;;30.15;;
62832;SDS011;48891;49.220;6.920;2023-02-19T02:00:50;44.30;;;29.90;;
62832;SDS011;48891;49.220;6.920;2023-02-19T02:03:15;43.40;;;30.42;;
62832;SDS011;48891;49.220;6.920;2023-02-19T02:05:45;43.63;;;29.60;;
62832;SDS011;48891;49.220;6.920;2023-02-19T02:08:12;44.65;;;29.05;;
62832;SDS011;48891;49.220;6.920;2023-02-19T02:10:38;46.40;;;30.35;;
62832;SDS011;48891;49.220;6.920;2023-02-19T02:13:03;40.40;;;28.53;;
62832;SDS011;48891;49.220;6.920;2023-02-19T02:15:33;42.08;;;28.33;;
62832;SDS011;48891;49.220;6.920;2023-02-19T02:18:03;40.80;;;28.25;;
62832;SDS011;48891;49.220;6.920;2023-02-19T02:35:36;40.17;;;26.80;;
62832;SDS011;48891;49.220;6.920;2023-02-19T02:38:03;38.05;;;27.05;;
62832;SDS011;48891;49.220;6.920;2023-02-19T02:40:30;37.25;;;26.40;;
62832;SDS011;48891;49.220;6.920;2023-02-19T02:42:56;39.53;;;27.50;;
62832;SDS011;48891;49.220;6.920;2023-02-19T02:45:25;37.25;;;26.23;;
62832;SDS011;48891;49.220;6.920;2023-02-19T02:47:52;39.63;;;27.10;;
62832;SDS011;48891;49.220;6.920;2023-02-19T02:50:22;38.50;;;25.90;;
62832;SDS011;48891;49.220;6.920;2023-02-19T02:52:49;39.25;;;26.38;;
62832;SDS011;48891;49.220;6.920;2023-02-19T02:55:16;37.13;;;26.00;;
62832;SDS011;48891;49.220;6.920;2023-02-19T02:57:41;37.50;;;26.47;;
62832;SDS011;48891;49.220;6.920;2023-02-19T03:00:06;37.92;;;25.17;;
62832;SDS011;48891;49.220;6.920;2023-02-19T03:02:32;38.45;;;26.10;;
62832;SDS011;48891;49.220;6.920;2023-02-19T03:07:25;36.85;;;25.83;;
62832;SDS011;48891;49.220;6.920;2023-02-19T03:09:52;36.08;;;23.92;;
62832;SDS011;48891;49.220;6.920;2023-02-19T03:12:18;36.75;;;25.00;;
62832;SDS011;48891;49.220;6.920;2023-02-19T03:14:45;36.00;;;24.58;;
62832;SDS011;48891;49.220;6.920;2023-02-19T03:17:16;35.45;;;24.88;;
62832;SDS011;48891;49.220;6.920;2023-02-19T03:19:45;33.97;;;23.20;;
62832;SDS011;48891;49.220;6.920;2023-02-19T03:22:15;35.55;;;24.20;;
62832;SDS011;48891;49.220;6.920;2023-02-19T03:24:44;34.20;;;24.40;;
62832;SDS011;48891;49.220;6.920;2023-02-19T03:27:09;32.95;;;22.70;;
62832;SDS011;48891;49.220;6.920;2023-02-19T03:29:36;32.33;;;22.85;;
62832;SDS011;48891;49.220;6.920;2023-02-19T03:32:22;34.35;;;23.67;;
62832;SDS011;48891;49.220;6.920;2023-02-19T03:34:53;33.38;;;23.05;;
62832;SDS011;48891;49.220;6.920;2023-02-19T03:37:33;31.40;;;22.30;;
62832;SDS011;48891;49.220;6.920;2023-02-19T03:39:59;30.52;;;22.70;;
62832;SDS011;48891;49.220;6.920;2023-02-19T03:50:12;29.80;;;20.80;;
62832;SDS011;48891;49.220;6.920;2023-02-19T03:55:16;28.73;;;20.60;;
62832;SDS011;48891;49.220;6.920;2023-02-19T03:58:17;31.10;;;20.80;;
62832;SDS011;48891;49.220;6.920;2023-02-19T04:00:52;29.42;;;20.08;;
62832;SDS011;48891;49.220;6.920;2023-02-19T04:05:47;29.35;;;20.25;;
62832;SDS011;48891;49.220;6.920;2023-02-19T04:08:18;27.00;;;20.35;;
62832;SDS011;48891;49.220;6.920;2023-02-19T04:10:44;26.10;;;18.55;;
62832;SDS011;48891;49.220;6.920;2023-02-19T04:13:13;28.08;;;20.00;;
62832;SDS011;48891;49.220;6.920;2023-02-19T04:15:39;27.42;;;18.65;;
62832;SDS011;48891;49.220;6.920;2023-02-19T04:18:06;27.90;;;19.23;;
62832;SDS011;48891;49.220;6.920;2023-02-19T04:20:34;26.42;;;18.92;;
62832;SDS011;48891;49.220;6.920;2023-02-19T04:23:00;26.23;;;19.38;;
62832;SDS011;48891;49.220;6.920;2023-02-19T04:25:25;27.27;;;18.57;;
62832;SDS011;48891;49.220;6.920;2023-02-19T04:27:51;26.50;;;19.45;;
62832;SDS011;48891;49.220;6.920;2023-02-19T04:30:16;24.63;;;17.85;;
62832;SDS011;48891;49.220;6.920;2023-02-19T04:32:41;24.00;;;17.63;;
62832;SDS011;48891;49.220;6.920;2023-02-19T04:35:07;26.08;;;18.10;;
62832;SDS011;48891;49.220;6.920;2023-02-19T04:37:32;25.30;;;18.17;;
62832;SDS011;48891;49.220;6.920;2023-02-19T04:39:57;24.80;;;18.20;;
62832;SDS011;48891;49.220;6.920;2023-02-19T04:42:22;22.95;;;17.00;;
62832;SDS011;48891;49.220;6.920;2023-02-19T04:44:47;23.40;;;16.67;;
62832;SDS011;48891;49.220;6.920;2023-02-19T04:47:12;23.05;;;16.95;;
62832;SDS011;48891;49.220;6.920;2023-02-19T04:49:38;22.92;;;16.92;;
62832;SDS011;48891;49.220;6.920;2023-02-19T04:52:03;24.30;;;16.38;;
62832;SDS011;48891;49.220;6.920;2023-02-19T04:54:28;23.08;;;16.10;;
62832;SDS011;48891;49.220;6.920;2023-02-19T04:56:53;21.45;;;16.15;;
62832;SDS011;48891;49.220;6.920;2023-02-19T04:59:18;22.38;;;15.60;;
62832;SDS011;48891;49.220;6.920;2023-02-19T05:01:43;21.13;;;15.60;;
62832;SDS011;48891;49.220;6.920;2023-02-19T05:04:08;21.33;;;15.00;;
62832;SDS011;48891;49.220;6.920;2023-02-19T05:06:34;22.70;;;15.60;;
62832;SDS011;48891;49.220;6.920;2023-02-19T05:08:59;20.40;;;14.77;;
62832;SDS011;48891;49.220;6.920;2023-02-19T05:11:24;21.90;;;15.80;;
62832;SDS011;48891;49.220;6.920;2023-02-19T05:13:49;20.43;;;14.97;;
62832;SDS011;48891;49.220;6.920;2023-02-19T05:16:15;22.17;;;14.82;;
62832;SDS011;48891;49.220;6.920;2023-02-19T05:18:40;20.63;;;14.82;;
62832;SDS011;48891;49.220;6.920;2023-02-19T05:21:06;20.00;;;14.77;;
62832;SDS011;48891;49.220;6.920;2023-02-19T05:23:31;21.23;;;14.68;;
62832;SDS011;48891;49.220;6.920;2023-02-19T05:25:56;21.23;;;14.30;;
62832;SDS011;48891;49.220;6.920;2023-02-19T05:28:21;19.93;;;14.57;;
62832;SDS011;48891;49.220;6.920;2023-02-19T05:30:47;22.00;;;14.75;;
62832;SDS011;48891;49.220;6.920;2023-02-19T05:33:13;19.77;;;13.77;;
62832;SDS011;48891;49.220;6.920;2023-02-19T05:35:39;20.10;;;13.50;;
62832;SDS011;48891;49.220;6.920;2023-02-19T05:38:05;21.30;;;13.98;;
62832;SDS011;48891;49.220;6.920;2023-02-19T05:40:30;20.40;;;14.70;;
62832;SDS011;48891;49.220;6.920;2023-02-19T05:42:55;19.17;;;13.55;;
62832;SDS011;48891;49.220;6.920;2023-02-19T05:45:20;18.40;;;13.43;;
62832;SDS011;48891;49.220;6.920;2023-02-19T05:47:45;19.40;;;14.45;;
62832;SDS011;48891;49.220;6.920;2023-02-19T05:50:10;18.20;;;12.82;;
62832;SDS011;48891;49.220;6.920;2023-02-19T05:52:35;19.70;;;13.68;;
62832;SDS011;48891;49.220;6.920;2023-02-19T05:55:00;18.90;;;13.55;;
62832;SDS011;48891;49.220;6.920;2023-02-19T05:57:26;17.83;;;13.18;;
62832;SDS011;48891;49.220;6.920;2023-02-19T05:59:51;19.40;;;13.23;;
62832;SDS011;48891;49.220;6.920;2023-02-19T06:02:16;18.83;;;13.10;;
62832;SDS011;48891;49.220;6.920;2023-02-19T06:04:41;18.33;;;12.95;;
62832;SDS011;48891;49.220;6.920;2023-02-19T06:07:06;21.15;;;14.32;;
62832;SDS011;48891;49.220;6.920;2023-02-19T06:09:31;17.60;;;13.32;;
62832;SDS011;48891;49.220;6.920;2023-02-19T06:11:56;17.17;;;13.20;;
62832;SDS011;48891;49.220;6.920;2023-02-19T06:14:21;20.13;;;14.05;;
62832;SDS011;48891;49.220;6.920;2023-02-19T06:16:47;18.25;;;13.60;;
62832;SDS011;48891;49.220;6.920;2023-02-19T06:19:12;18.53;;;13.00;;
62832;SDS011;48891;49.220;6.920;2023-02-19T06:21:37;17.65;;;12.90;;
62832;SDS011;48891;49.220;6.920;2023-02-19T06:24:06;20.38;;;14.65;;
62832;SDS011;48891;49.220;6.920;2023-02-19T06:26:31;18.35;;;12.93;;
62832;SDS011;48891;49.220;6.920;2023-02-19T06:28:56;17.95;;;13.07;;
62832;SDS011;48891;49.220;6.920;2023-02-19T06:31:21;17.95;;;13.75;;
62832;SDS011;48891;49.220;6.920;2023-02-19T06:33:47;19.63;;;13.43;;
62832;SDS011;48891;49.220;6.920;2023-02-19T06:36:13;17.83;;;13.27;;
62832;SDS011;48891;49.220;6.920;2023-02-19T06:38:39;17.53;;;12.57;;
62832;SDS011;48891;49.220;6.920;2023-02-19T06:41:05;18.13;;;13.03;;
62832;SDS011;48891;49.220;6.920;2023-02-19T06:43:31;18.85;;;13.68;;
62832;SDS011;48891;49.220;6.920;2023-02-19T06:45:59;19.10;;;13.63;;
62832;SDS011;48891;49.220;6.920;2023-02-19T06:50:49;20.25;;;13.35;;
62832;SDS011;48891;49.220;6.920;2023-02-19T06:53:14;17.75;;;14.05;;
62832;SDS011;48891;49.220;6.920;2023-02-19T06:55:40;20.05;;;14.73;;
62832;SDS011;48891;49.220;6.920;2023-02-19T06:58:05;16.92;;;13.57;;
62832;SDS011;48891;49.220;6.920;2023-02-19T07:00:31;20.65;;;14.35;;
62832;SDS011;48891;49.220;6.920;2023-02-19T07:02:56;19.15;;;14.55;;
62832;SDS011;48891;49.220;6.920;2023-02-19T07:05:21;19.90;;;13.60;;
62832;SDS011;48891;49.220;6.920;2023-02-19T07:07:47;20.35;;;14.02;;
62832;SDS011;48891;49.220;6.920;2023-02-19T07:10:12;19.00;;;14.57;;
62832;SDS011;48891;49.220;6.920;2023-02-19T07:12:37;21.00;;;15.25;;
62832;SDS011;48891;49.220;6.920;2023-02-19T07:15:02;18.17;;;13.98;;
62832;SDS011;48891;49.220;6.920;2023-02-19T07:17:28;19.53;;;14.60;;
62832;SDS011;48891;49.220;6.920;2023-02-19T07:19:53;21.05;;;15.45;;
62832;SDS011;48891;49.220;6.920;2023-02-19T07:22:18;19.33;;;15.15;;
62832;SDS011;48891;49.220;6.920;2023-02-19T07:24:43;20.08;;;15.70;;
62832;SDS011;48891;49.220;6.920;2023-02-19T07:27:08;22.15;;;15.43;;
62832;SDS011;48891;49.220;6.920;2023-02-19T07:29:34;19.60;;;15.20;;
62832;SDS011;48891;49.220;6.920;2023-02-19T07:31:59;19.88;;;15.50;;
62832;SDS011;48891;49.220;6.920;2023-02-19T07:34:24;19.08;;;14.50;;
62832;SDS011;48891;49.220;6.920;2023-02-19T07:36:49;21.15;;;16.13;;
62832;SDS011;48891;49.220;6.920;2023-02-19T07:39:14;20.40;;;15.60;;
62832;SDS011;48891;49.220;6.920;2023-02-19T07:41:39;21.35;;;15.57;;
62832;SDS011;48891;49.220;6.920;2023-02-19T07:44:04;19.23;;;15.30;;
62832;SDS011;48891;49.220;6.920;2023-02-19T07:46:29;19.75;;;15.30;;
62832;SDS011;48891;49.220;6.920;2023-02-19T07:48:55;20.50;;;15.45;;
62832;SDS011;48891;49.220;6.920;2023-02-19T07:51:20;20.05;;;15.48;;
62832;SDS011;48891;49.220;6.920;2023-02-19T07:53:46;20.85;;;15.48;;
62832;SDS011;48891;49.220;6.920;2023-02-19T07:56:11;20.02;;;14.98;;
62832;SDS011;48891;49.220;6.920;2023-02-19T07:58:36;18.50;;;14.98;;
62832;SDS011;48891;49.220;6.920;2023-02-19T08:03:38;20.50;;;15.35;;
62832;SDS011;48891;49.220;6.920;2023-02-19T08:06:04;19.83;;;15.50;;
62832;SDS011;48891;49.220;6.920;2023-02-19T08:08:29;21.42;;;15.75;;
62832;SDS011;48891;49.220;6.920;2023-02-19T08:10:56;19.67;;;14.98;;
62832;SDS011;48891;49.220;6.920;2023-02-19T08:13:23;20.15;;;14.93;;
62832;SDS011;48891;49.220;6.920;2023-02-19T08:15:49;20.23;;;15.40;;
62832;SDS011;48891;49.220;6.920;2023-02-19T08:18:15;22.15;;;16.02;;
62832;SDS011;48891;49.220;6.920;2023-02-19T08:20:41;21.67;;;15.98;;
62832;SDS011;48891;49.220;6.920;2023-02-19T08:23:06;22.52;;;16.70;;
62832;SDS011;48891;49.220;6.920;2023-02-19T08:25:32;20.13;;;15.48;;
62832;SDS011;48891;49.220;6.920;2023-02-19T08:27:57;19.35;;;15.30;;
62832;SDS011;48891;49.220;6.920;2023-02-19T08:30:22;20.73;;;16.00;;
62832;SDS011;48891;49.220;6.920;2023-02-19T08:32:48;20.23;;;15.77;;
62832;SDS011;48891;49.220;6.920;2023-02-19T08:35:13;22.75;;;15.68;;
62832;SDS011;48891;49.220;6.920;2023-02-19T08:37:38;19.43;;;14.97;;
62832;SDS011;48891;49.220;6.920;2023-02-19T08:40:03;19.42;;;14.60;;
62832;SDS011;48891;49.220;6.920;2023-02-19T08:42:29;19.25;;;14.57;;
62832;SDS011;48891;49.220;6.920;2023-02-19T08:44:54;20.55;;;16.02;;
62832;SDS011;48891;49.220;6.920;2023-02-19T08:47:19;21.48;;;16.35;;
62832;SDS011;48891;49.220;6.920;2023-02-19T08:49:44;20.38;;;15.45;;
62832;SDS011;48891;49.220;6.920;2023-02-19T08:52:09;20.90;;;14.93;;
62832;SDS011;48891;49.220;6.920;2023-02-19T08:54:34;19.63;;;15.07;;
62832;SDS011;48891;49.220;6.920;2023-02-19T08:57:00;20.33;;;16.10;;
62832;SDS011;48891;49.220;6.920;2023-02-19T08:59:27;19.65;;;15.43;;
62832;SDS011;48891;49.220;6.920;2023-02-19T09:01:52;18.98;;;15.02;;
62832;SDS011;48891;49.220;6.920;2023-02-19T09:04:17;19.88;;;15.82;;
62832;SDS011;48891;49.220;6.920;2023-02-19T09:06:42;19.40;;;15.38;;
62832;SDS011;48891;49.220;6.920;2023-02-19T09:09:07;19.40;;;15.48;;
62832;SDS011;48891;49.220;6.920;2023-02-19T09:11:32;18.85;;;15.80;;
62832;SDS011;48891;49.220;6.920;2023-02-19T09:13:57;20.13;;;16.08;;
62832;SDS011;48891;49.220;6.920;2023-02-19T09:16:22;20.40;;;15.02;;
62832;SDS011;48891;49.220;6.920;2023-02-19T09:18:48;19.83;;;15.57;;
62832;SDS011;48891;49.220;6.920;2023-02-19T09:21:13;20.02;;;15.65;;
62832;SDS011;48891;49.220;6.920;2023-02-19T09:23:38;19.73;;;15.57;;
62832;SDS011;48891;49.220;6.920;2023-02-19T09:26:03;20.50;;;15.80;;
62832;SDS011;48891;49.220;6.920;2023-02-19T09:28:29;20.27;;;15.38;;
62832;SDS011;48891;49.220;6.920;2023-02-19T09:30:54;21.00;;;15.38;;
62832;SDS011;48891;49.220;6.920;2023-02-19T09:33:19;21.17;;;15.88;;
62832;SDS011;48891;49.220;6.920;2023-02-19T09:35:44;20.00;;;15.97;;
62832;SDS011;48891;49.220;6.920;2023-02-19T09:38:09;22.42;;;15.82;;
62832;SDS011;48891;49.220;6.920;2023-02-19T09:40:38;18.42;;;14.93;;
62832;SDS011;48891;49.220;6.920;2023-02-19T09:43:07;20.38;;;14.85;;
62832;SDS011;48891;49.220;6.920;2023-02-19T09:45:35;21.88;;;16.45;;
62832;SDS011;48891;49.220;6.920;2023-02-19T09:48:01;19.70;;;15.60;;
62832;SDS011;48891;49.220;6.920;2023-02-19T09:50:30;20.95;;;16.23;;
62832;SDS011;48891;49.220;6.920;2023-02-19T09:52:57;20.33;;;15.93;;
62832;SDS011;48891;49.220;6.920;2023-02-19T09:55:44;18.55;;;15.98;;
62832;SDS011;48891;49.220;6.920;2023-02-19T09:58:31;19.45;;;15.10;;
62832;SDS011;48891;49.220;6.920;2023-02-19T10:00:57;21.98;;;15.23;;
62832;SDS011;48891;49.220;6.920;2023-02-19T10:03:25;21.40;;;15.60;;
62832;SDS011;48891;49.220;6.920;2023-02-19T10:05:51;21.17;;;14.88;;
62832;SDS011;48891;49.220;6.920;2023-02-19T10:08:18;22.70;;;14.73;;
62832;SDS011;48891;49.220;6.920;2023-02-19T10:10:43;20.17;;;15.15;;
62832;SDS011;48891;49.220;6.920;2023-02-19T10:13:22;21.30;;;15.82;;
62832;SDS011;48891;49.220;6.920;2023-02-19T10:15:49;22.15;;;15.55;;
62832;SDS011;48891;49.220;6.920;2023-02-19T10:18:15;21.35;;;15.02;;
62832;SDS011;48891;49.220;6.920;2023-02-19T10:20:41;22.60;;;14.52;;
62832;SDS011;48891;49.220;6.920;2023-02-19T10:23:06;20.85;;;15.32;;
62832;SDS011;48891;49.220;6.920;2023-02-19T10:25:32;19.88;;;14.45;;
62832;SDS011;48891;49.220;6.920;2023-02-19T10:27:58;20.23;;;14.48;;
62832;SDS011;48891;49.220;6.920;2023-02-19T10:30:24;21.70;;;15.45;;
62832;SDS011;48891;49.220;6.920;2023-02-19T10:33:00;20.55;;;15.02;;
62832;SDS011;48891;49.220;6.920;2023-02-19T10:35:25;19.75;;;14.20;;
62832;SDS011;48891;49.220;6.920;2023-02-19T10:37:50;19.57;;;14.60;;
62832;SDS011;48891;49.220;6.920;2023-02-19T10:40:17;20.50;;;14.90;;
62832;SDS011;48891;49.220;6.920;2023-02-19T10:42:49;21.00;;;14.82;;
62832;SDS011;48891;49.220;6.920;2023-02-19T10:45:16;20.23;;;14.73;;
62832;SDS011;48891;49.220;6.920;2023-02-19T10:47:44;20.97;;;14.00;;
62832;SDS011;48891;49.220;6.920;2023-02-19T10:50:22;20.30;;;14.53;;
62832;SDS011;48891;49.220;6.920;2023-02-19T10:52:55;21.05;;;14.95;;
62832;SDS011;48891;49.220;6.920;2023-02-19T10:55:25;18.58;;;13.88;;
62832;SDS011;48891;49.220;6.920;2023-02-19T10:57:52;23.17;;;14.50;;
62832;SDS011;48891;49.220;6.920;2023-02-19T11:00:25;21.30;;;15.20;;
62832;SDS011;48891;49.220;6.920;2023-02-19T11:02:50;19.10;;;13.25;;
62832;SDS011;48891;49.220;6.920;2023-02-19T11:05:35;18.92;;;13.82;;
62832;SDS011;48891;49.220;6.920;2023-02-19T11:08:01;20.60;;;14.07;;
62832;SDS011;48891;49.220;6.920;2023-02-19T11:10:33;20.52;;;14.20;;
62832;SDS011;48891;49.220;6.920;2023-02-19T11:13:00;18.83;;;13.93;;
62832;SDS011;48891;49.220;6.920;2023-02-19T11:15:29;21.90;;;14.27;;
62832;SDS011;48891;49.220;6.920;2023-02-19T11:17:56;19.40;;;14.35;;
62832;SDS011;48891;49.220;6.920;2023-02-19T11:20:22;20.67;;;14.10;;
62832;SDS011;48891;49.220;6.920;2023-02-19T11:22:47;17.70;;;14.45;;
62832;SDS011;48891;49.220;6.920;2023-02-19T11:27:52;19.73;;;15.13;;
62832;SDS011;48891;49.220;6.920;2023-02-19T11:32:45;18.83;;;13.85;;
62832;SDS011;48891;49.220;6.920;2023-02-19T11:40:19;18.77;;;13.27;;
62832;SDS011;48891;49.220;6.920;2023-02-19T11:42:50;19.75;;;13.82;;
62832;SDS011;48891;49.220;6.920;2023-02-19T11:45:34;18.92;;;13.55;;
62832;SDS011;48891;49.220;6.920;2023-02-19T11:48:08;18.10;;;13.75;;
62832;SDS011;48891;49.220;6.920;2023-02-19T11:50:54;17.98;;;13.30;;
62832;SDS011;48891;49.220;6.920;2023-02-19T11:53:27;20.20;;;14.38;;
62832;SDS011;48891;49.220;6.920;2023-02-19T11:58:50;18.52;;;13.50;;
62832;SDS011;48891;49.220;6.920;2023-02-19T12:07:16;17.80;;;13.20;;
62832;SDS011;48891;49.220;6.920;2023-02-19T12:11:48;19.25;;;13.77;;
62832;SDS011;48891;49.220;6.920;2023-02-19T12:15:01;18.42;;;13.52;;
62832;SDS011;48891;49.220;6.920;2023-02-19T12:19:41;18.15;;;13.95;;
62832;SDS011;48891;49.220;6.920;2023-02-19T12:22:13;16.67;;;12.73;;
62832;SDS011;48891;49.220;6.920;2023-02-19T12:27:36;18.77;;;13.48;;
62832;SDS011;48891;49.220;6.920;2023-02-19T12:32:48;18.48;;;13.00;;
62832;SDS011;48891;49.220;6.920;2023-02-19T12:35:23;18.38;;;13.43;;
62832;SDS011;48891;49.220;6.920;2023-02-19T12:40:19;20.07;;;13.93;;
62832;SDS011;48891;49.220;6.920;2023-02-19T12:45:36;17.73;;;12.82;;
62832;SDS011;48891;49.220;6.920;2023-02-19T12:48:15;17.08;;;12.50;;
62832;SDS011;48891;49.220;6.920;2023-02-19T12:50:42;18.90;;;12.68;;
62832;SDS011;48891;49.220;6.920;2023-02-19T12:55:53;17.70;;;12.60;;
62832;SDS011;48891;49.220;6.920;2023-02-19T12:58:24;14.68;;;12.25;;
62832;SDS011;48891;49.220;6.920;2023-02-19T13:00:54;15.55;;;12.38;;
62832;SDS011;48891;49.220;6.920;2023-02-19T13:08:26;16.88;;;13.00;;
62832;SDS011;48891;49.220;6.920;2023-02-19T13:10:57;18.25;;;12.68;;
62832;SDS011;48891;49.220;6.920;2023-02-19T13:13:27;16.48;;;12.70;;
62832;SDS011;48891;49.220;6.920;2023-02-19T13:15:55;14.68;;;11.27;;
62832;SDS011;48891;49.220;6.920;2023-02-19T13:18:27;16.90;;;12.68;;
62832;SDS011;48891;49.220;6.920;2023-02-19T13:20:54;18.27;;;13.57;;
62832;SDS011;48891;49.220;6.920;2023-02-19T13:26:05;16.98;;;12.40;;
62832;SDS011;48891;49.220;6.920;2023-02-19T13:31:17;18.63;;;13.88;;
62832;SDS011;48891;49.220;6.920;2023-02-19T13:33:53;17.15;;;12.73;;
62832;SDS011;48891;49.220;6.920;2023-02-19T13:36:23;18.67;;;13.20;;
62832;SDS011;48891;49.220;6.920;2023-02-19T13:38:49;16.48;;;12.13;;
62832;SDS011;48891;49.220;6.920;2023-02-19T13:41:19;18.90;;;12.70;;
62832;SDS011;48891;49.220;6.920;2023-02-19T13:43:45;15.10;;;12.25;;
62832;SDS011;48891;49.220;6.920;2023-02-19T13:46:11;17.98;;;12.55;;
62832;SDS011;48891;49.220;6.920;2023-02-19T13:48:38;16.42;;;12.27;;
62832;SDS011;48891;49.220;6.920;2023-02-19T13:58:51;17.85;;;12.80;;
62832;SDS011;48891;49.220;6.920;2023-02-19T14:01:16;18.30;;;13.75;;
62832;SDS011;48891;49.220;6.920;2023-02-19T14:06:07;17.20;;;12.82;;
62832;SDS011;48891;49.220;6.920;2023-02-19T14:08:46;16.80;;;12.40;;
62832;SDS011;48891;49.220;6.920;2023-02-19T14:11:12;19.38;;;13.20;;
62832;SDS011;48891;49.220;6.920;2023-02-19T14:16:27;17.45;;;13.02;;
62832;SDS011;48891;49.220;6.920;2023-02-19T14:18:52;17.75;;;13.02;;
62832;SDS011;48891;49.220;6.920;2023-02-19T14:21:24;18.70;;;13.20;;
62832;SDS011;48891;49.220;6.920;2023-02-19T14:23:57;18.42;;;13.10;;
62832;SDS011;48891;49.220;6.920;2023-02-19T14:26:24;17.60;;;13.90;;
62832;SDS011;48891;49.220;6.920;2023-02-19T14:28:49;20.17;;;13.80;;
62832;SDS011;48891;49.220;6.920;2023-02-19T14:33:45;19.58;;;14.32;;
62832;SDS011;48891;49.220;6.920;2023-02-19T14:38:57;17.35;;;13.27;;
62832;SDS011;48891;49.220;6.920;2023-02-19T14:41:23;19.85;;;13.88;;
62832;SDS011;48891;49.220;6.920;2023-02-19T14:43:50;19.33;;;13.68;;
62832;SDS011;48891;49.220;6.920;2023-02-19T14:48:48;20.23;;;14.18;;
62832;SDS011;48891;49.220;6.920;2023-02-19T14:51:58;18.30;;;14.52;;
62832;SDS011;48891;49.220;6.920;2023-02-19T14:53:59;19.85;;;13.70;;
62832;SDS011;48891;49.220;6.920;2023-02-19T14:56:28;19.55;;;14.50;;
62832;SDS011;48891;49.220;6.920;2023-02-19T14:59:20;21.23;;;14.63;;
62832;SDS011;48891;49.220;6.920;2023-02-19T15:01:45;19.42;;;14.02;;
62832;SDS011;48891;49.220;6.920;2023-02-19T15:04:21;18.02;;;13.10;;
62832;SDS011;48891;49.220;6.920;2023-02-19T15:06:46;21.15;;;15.57;;
62832;SDS011;48891;49.220;6.920;2023-02-19T15:09:11;21.55;;;14.95;;
62832;SDS011;48891;49.220;6.920;2023-02-19T15:11:37;19.63;;;14.45;;
62832;SDS011;48891;49.220;6.920;2023-02-19T15:16:31;22.30;;;14.77;;
62832;SDS011;48891;49.220;6.920;2023-02-19T15:18:57;19.98;;;14.45;;
62832;SDS011;48891;49.220;6.920;2023-02-19T15:21:24;21.65;;;14.90;;
62832;SDS011;48891;49.220;6.920;2023-02-19T15:23:50;18.70;;;14.00;;
62832;SDS011;48891;49.220;6.920;2023-02-19T15:26:33;19.87;;;14.43;;
62832;SDS011;48891;49.220;6.920;2023-02-19T15:29:00;21.13;;;14.55;;
62832;SDS011;48891;49.220;6.920;2023-02-19T15:31:25;19.58;;;15.00;;
62832;SDS011;48891;49.220;6.920;2023-02-19T15:33:50;20.38;;;14.60;;
62832;SDS011;48891;49.220;6.920;2023-02-19T15:36:18;21.52;;;15.48;;
62832;SDS011;48891;49.220;6.920;2023-02-19T15:38:50;23.88;;;15.98;;
62832;SDS011;48891;49.220;6.920;2023-02-19T15:41:20;22.40;;;15.52;;
62832;SDS011;48891;49.220;6.920;2023-02-19T15:43:47;20.67;;;15.27;;
62832;SDS011;48891;49.220;6.920;2023-02-19T15:46:18;23.38;;;15.85;;
62832;SDS011;48891;49.220;6.920;2023-02-19T15:48:48;19.52;;;15.70;;
62832;SDS011;48891;49.220;6.920;2023-02-19T15:51:15;20.80;;;15.73;;
62832;SDS011;48891;49.220;6.920;2023-02-19T15:53:45;21.48;;;15.80;;
62832;SDS011;48891;49.220;6.920;2023-02-19T15:56:16;20.00;;;15.73;;
62832;SDS011;48891;49.220;6.920;2023-02-19T15:58:44;20.92;;;15.90;;
62832;SDS011;48891;49.220;6.920;2023-02-19T16:01:13;22.30;;;16.10;;
62832;SDS011;48891;49.220;6.920;2023-02-19T16:03:40;21.67;;;16.35;;
62832;SDS011;48891;49.220;6.920;2023-02-19T16:08:34;24.10;;;17.00;;
62832;SDS011;48891;49.220;6.920;2023-02-19T16:11:00;23.90;;;16.23;;